Frederike Selmer — V7QY8 — position and weather

sailwx.info

Track history (hours):
 
Tides and Currents Weather Stations Pressure Air Temp Water Temp Dewpoint Dewpoint Depression Visibility Wind Speed Wind Dir Waves Ship Positions

Frederike Selmer

Last reported at 2014-Aug-30 20:21 UTC. Time now 2014-Oct-02 04:27 UTC.
Position N 29°13' E 032°42'.
Warning: this ship's position is 32 days out of date.

Length 188 m; draft 12.8 m.

Type: Cargo ship. MMSI: 538090377.

Date/timePositionNaut miles runAvg speedWind from/ knotsBaromVisibWave heightAir tempDewpointWater temp
2014-Aug-30 20:21N 29°13' E 032°42'69 3.9
2014-Aug-30 02:31N 30°20' E 032°23'43 8.6
2014-Aug-29 21:32N 31°03' E 032°19'9 9.3
2014-Aug-29 20:33N 31°12' E 032°18'8 6.2
2014-Aug-29 19:13N 31°20' E 032°22'3 5.2
2014-Aug-29 18:33N 31°22' E 032°19'156 9.0
2014-Aug-29 01:17N 33°19' E 030°16'4012.7
2014-Aug-28 22:10N 33°48' E 029°45'712.3
2014-Aug-28 21:33N 33°54' E 029°38'2512.3
2014-Aug-28 19:33N 34°11' E 029°18'16512.4
2014-Aug-28 06:18N 36°14' E 027°02'1212.2
2014-Aug-28 05:21N 36°22' E 026°52'1212.3
2014-Aug-28 04:24N 36°32' E 026°45'1112.9
2014-Aug-28 03:33N 36°43' E 026°43'1312.9
2014-Aug-28 02:33N 36°55' E 026°39'1211.8
2014-Aug-28 01:33N 37°07' E 026°35'1212.2
2014-Aug-28 00:33N 37°13' E 026°22'1212.1
2014-Aug-27 23:34N 37°19' E 026°09'1212.3
2014-Aug-27 22:33N 37°25' E 025°55'1111.1
2014-Aug-27 21:33N 37°31' E 025°44'1413.6
2014-Aug-27 20:30N 37°46' E 025°44'1314.1
2014-Aug-27 19:33N 37°59' E 025°44'1313.1
2014-Aug-27 18:32N 38°12' E 025°44'1212.7
2014-Aug-27 17:33N 38°25' E 025°44'1212.2
2014-Aug-27 16:33N 38°37' E 025°43'1111.5
2014-Aug-27 15:33N 38°48' E 025°42'2110.5
2014-Aug-27 13:33N 39°09' E 025°38'9 9.0
2014-Aug-27 12:32N 39°18' E 025°38'30 7.5
2014-Aug-27 08:34N 39°48' E 025°45'14710.9
2014-Aug-26 19:07N 40°53' E 028°38'812.1
2014-Aug-26 18:26N 40°54' E 028°49'7 8.4
2014-Aug-26 17:33N 40°58' E 028°57'302 9.1
2014-Aug-25 08:28N 43°53' E 034°30'6412.1
2014-Aug-25 03:13N 44°27' E 035°45'  
2014-Aug-22 14:16N 45°09' E 036°34'  
Track history (hours):
 
Tides and Currents Weather Stations Pressure Air Temp Water Temp Dewpoint Dewpoint Depression Visibility Wind Speed Wind Dir Waves Ship Positions

Frederike Selmer

Last reported at 2014-Aug-30 20:21 UTC. Time now 2014-Oct-02 04:27 UTC.
Position N 29°13' E 032°42'.
Warning: this ship's position is 32 days out of date.

Length 188 m; draft 12.8 m.

Type: Cargo ship. MMSI: 538090377.

Date/timePositionNaut miles runAvg speedWind from/ knotsBaromVisibWave heightAir tempDewpointWater temp
2014-Aug-30 20:21N 29°13' E 032°42'69 3.9
2014-Aug-30 02:31N 30°20' E 032°23'43 8.6
2014-Aug-29 21:32N 31°03' E 032°19'9 9.3
2014-Aug-29 20:33N 31°12' E 032°18'8 6.2
2014-Aug-29 19:13N 31°20' E 032°22'3 5.2
2014-Aug-29 18:33N 31°22' E 032°19'156 9.0
2014-Aug-29 01:17N 33°19' E 030°16'4012.7
2014-Aug-28 22:10N 33°48' E 029°45'712.3
2014-Aug-28 21:33N 33°54' E 029°38'2512.3
2014-Aug-28 19:33N 34°11' E 029°18'16512.4
2014-Aug-28 06:18N 36°14' E 027°02'1212.2
2014-Aug-28 05:21N 36°22' E 026°52'1212.3
2014-Aug-28 04:24N 36°32' E 026°45'1112.9
2014-Aug-28 03:33N 36°43' E 026°43'1312.9
2014-Aug-28 02:33N 36°55' E 026°39'1211.8
2014-Aug-28 01:33N 37°07' E 026°35'1212.2
2014-Aug-28 00:33N 37°13' E 026°22'1212.1
2014-Aug-27 23:34N 37°19' E 026°09'1212.3
2014-Aug-27 22:33N 37°25' E 025°55'1111.1
2014-Aug-27 21:33N 37°31' E 025°44'1413.6
2014-Aug-27 20:30N 37°46' E 025°44'1314.1
2014-Aug-27 19:33N 37°59' E 025°44'1313.1
2014-Aug-27 18:32N 38°12' E 025°44'1212.7
2014-Aug-27 17:33N 38°25' E 025°44'1212.2
2014-Aug-27 16:33N 38°37' E 025°43'1111.5
2014-Aug-27 15:33N 38°48' E 025°42'2110.5
2014-Aug-27 13:33N 39°09' E 025°38'9 9.0
2014-Aug-27 12:32N 39°18' E 025°38'30 7.5
2014-Aug-27 08:34N 39°48' E 025°45'14710.9
2014-Aug-26 19:07N 40°53' E 028°38'812.1
2014-Aug-26 18:26N 40°54' E 028°49'7 8.4
2014-Aug-26 17:33N 40°58' E 028°57'302 9.1
2014-Aug-25 08:28N 43°53' E 034°30'6412.1
2014-Aug-25 03:13N 44°27' E 035°45'  
2014-Aug-22 14:16N 45°09' E 036°34'  

Dump ship's entire track history